Time;durP1;ratioP1;P1;durP2;ratioP2;P2;SDS_P1;SDS_P2;PMS_P1;PMS_P2;Temp;Humidity;BMP_temperature;BMP_pressure;BME280_temperature;BME280_humidity;BME280_pressure;Samples;Min_cycle;Max_cycle;Signal;HPM_P1;HPM_P2
2022/06/09 00:00:14;;;;;;;;;;;;;;;15.67;70.56;97329.13;5096226;28;20010;-54
2022/06/09 00:03:04;;;;;;;;;;;;;;;15.63;70.53;97329.03;5098320;28;19930;-54
2022/06/09 00:05:54;;;;;;;;;;;;;;;15.64;70.46;97336.09;5102057;28;19923;-53
2022/06/09 00:08:44;;;;;;;;;;;;;;;15.69;70.11;97335.03;5101597;28;20125;-54
2022/06/09 00:14:47;;;;;;;;;;;;;;;15.65;70.39;97337.69;5097104;28;20739;-53
2022/06/09 00:17:36;;;;;;;;;;;;;;;15.62;70.65;97343.06;5098808;28;20128;-54
2022/06/09 00:20:24;;;;;;;;;;;;;;;15.61;70.56;97342.28;5093931;28;19920;-54
2022/06/09 00:23:13;;;;;;;;;;;;;;;15.59;70.63;97341.81;5098567;28;19927;-54
2022/06/09 00:26:01;;;;;;;;;;;;;;;15.60;70.53;97343.41;5090598;28;19920;-53
2022/06/09 00:28:50;;;;;;;;;;;;;;;15.56;70.74;97337.09;5101321;28;19942;-53
2022/06/09 00:31:44;;;;;;;;;;;;;;;15.57;70.70;97341.41;5098644;28;19926;-53
2022/06/09 00:34:32;;;;;;;;;;;;;;;15.54;70.68;97344.84;5097283;28;20008;-51
2022/06/09 00:37:25;;;;;;;;;;;;;;;15.55;70.75;97340.94;5099152;28;19923;-54
2022/06/09 00:40:14;;;;;;;;;;;;;;;15.52;70.75;97344.41;5097034;28;20364;-52
2022/06/09 00:43:06;;;;;;;;;;;;;;;15.49;71.15;97339.63;5100574;28;19932;-53
2022/06/09 00:45:56;;;;;;;;;;;;;;;15.55;70.71;97340.94;5096674;28;20283;-54
2022/06/09 00:48:47;;;;;;;;;;;;;;;15.56;70.49;97342.56;5101660;28;19931;-53
2022/06/09 00:52:00;;;;;;;;;;;;;;;15.56;70.34;97339.81;5095405;28;19931;-53
2022/06/09 00:55:12;;;;;;;;;;;;;;;15.51;70.79;97353.78;5094945;28;20010;-54
2022/06/09 00:58:09;;;;;;;;;;;;;;;15.44;70.88;97359.88;5094353;28;20374;-51
2022/06/09 01:01:00;;;;;;;;;;;;;;;15.37;71.51;97354.25;5099944;28;19923;-54
2022/06/09 01:03:52;;;;;;;;;;;;;;;15.37;71.89;97367.13;5101833;28;19939;-52
2022/06/09 01:06:46;;;;;;;;;;;;;;;15.40;71.82;97364.50;5098915;28;19931;-53
2022/06/09 01:09:35;;;;;;;;;;;;;;;15.36;71.99;97360.06;5093880;28;19924;-54
2022/06/09 01:12:25;;;;;;;;;;;;;;;15.29;72.44;97362.66;5098176;28;20372;-52
2022/06/09 01:15:13;;;;;;;;;;;;;;;15.26;72.39;97364.16;5093369;28;19934;-53
2022/06/09 01:18:03;;;;;;;;;;;;;;;15.28;72.21;97361.06;5100324;28;19920;-52
2022/06/09 01:20:57;;;;;;;;;;;;;;;15.24;72.32;97360.97;5099106;28;19932;-54
2022/06/09 01:23:59;;;;;;;;;;;;;;;15.18;72.07;97360.47;5094224;28;20380;-54
2022/06/09 01:30:09;;;;;;;;;;;;;;;15.22;71.85;97366.00;5082674;28;19931;-53
2022/06/09 01:33:00;;;;;;;;;;;;;;;15.18;72.13;97365.94;5096764;28;19931;-53
2022/06/09 01:35:50;;;;;;;;;;;;;;;15.18;72.35;97371.41;5092069;28;19994;-54
2022/06/09 01:38:46;;;;;;;;;;;;;;;15.18;72.09;97362.41;5101876;28;19927;-53
2022/06/09 01:41:35;;;;;;;;;;;;;;;15.10;72.39;97368.84;5101821;28;19920;-53
2022/06/09 01:44:50;;;;;;;;;;;;;;;15.12;72.33;97372.00;5096071;28;20415;-52
2022/06/09 01:47:44;;;;;;;;;;;;;;;15.15;72.22;97376.78;5096762;28;19932;-54
2022/06/09 01:50:35;;;;;;;;;;;;;;;15.14;72.14;97384.19;5094675;28;19920;-53
2022/06/09 01:53:26;;;;;;;;;;;;;;;15.07;72.07;97375.78;5092920;28;19931;-54
2022/06/09 01:56:39;;;;;;;;;;;;;;;15.12;71.86;97381.00;5095904;28;19930;-53
2022/06/09 01:59:54;;;;;;;;;;;;;;;15.16;71.66;97383.84;5090534;28;19937;-54
2022/06/09 02:02:44;;;;;;;;;;;;;;;15.10;72.02;97383.31;5094961;28;20317;-54
2022/06/09 02:05:35;;;;;;;;;;;;;;;15.14;71.73;97384.19;5097328;28;20007;-53
2022/06/09 02:08:24;;;;;;;;;;;;;;;15.12;71.83;97381.00;5099137;28;19931;-54
2022/06/09 02:11:15;;;;;;;;;;;;;;;15.04;71.94;97373.78;5098629;28;20595;-53
2022/06/09 02:14:06;;;;;;;;;;;;;;;14.93;72.21;97383.66;5096311;28;19935;-54
2022/06/09 02:17:19;;;;;;;;;;;;;;;14.97;72.14;97384.56;5089691;28;19943;-53
2022/06/09 02:20:08;;;;;;;;;;;;;;;15.03;71.95;97394.09;5092301;28;20080;-54
2022/06/09 02:22:58;;;;;;;;;;;;;;;15.06;71.94;97387.91;5090679;28;19920;-53
2022/06/09 02:25:47;;;;;;;;;;;;;;;14.97;71.86;97392.78;5090066;28;19926;-54
2022/06/09 02:28:35;;;;;;;;;;;;;;;14.92;72.19;97403.97;5093349;28;19959;-53
2022/06/09 02:31:24;;;;;;;;;;;;;;;14.95;72.04;97395.03;5092729;28;19930;-53
2022/06/09 02:34:19;;;;;;;;;;;;;;;14.96;72.15;97398.56;5093017;28;19982;-53
2022/06/09 02:37:07;;;;;;;;;;;;;;;14.91;72.14;97396.88;5094110;28;19988;-54
2022/06/09 02:40:00;;;;;;;;;;;;;;;14.91;72.01;97399.63;5098023;28;20058;-54
2022/06/09 02:42:49;;;;;;;;;;;;;;;14.82;72.04;97399.81;5087585;28;19955;-53
2022/06/09 02:45:38;;;;;;;;;;;;;;;14.79;72.36;97405.19;5098811;28;19927;-53
2022/06/09 02:48:26;;;;;;;;;;;;;;;14.97;72.33;97405.63;5098882;28;20391;-54
2022/06/09 02:51:16;;;;;;;;;;;;;;;14.92;71.73;97410.22;5095796;28;19926;-53
2022/06/09 02:54:05;;;;;;;;;;;;;;;14.80;72.25;97406.75;5093082;28;19935;-54
2022/06/09 02:56:55;;;;;;;;;;;;;;;14.80;72.29;97412.22;5093541;28;20051;-54
2022/06/09 02:59:44;;;;;;;;;;;;;;;14.86;71.91;97408.09;5093609;28;19920;-53
2022/06/09 03:02:32;;;;;;;;;;;;;;;14.77;72.14;97411.00;5099101;28;19935;-53
2022/06/09 03:05:24;;;;;;;;;;;;;;;14.82;72.01;97401.75;5094720;28;19931;-54
2022/06/09 03:08:12;;;;;;;;;;;;;;;14.81;71.94;97405.63;5093253;28;20633;-53
2022/06/09 03:11:00;;;;;;;;;;;;;;;14.75;72.07;97409.75;5097473;28;19927;-53
2022/06/09 03:13:50;;;;;;;;;;;;;;;14.75;72.21;97410.53;5094362;28;19919;-53
2022/06/09 03:16:39;;;;;;;;;;;;;;;14.76;72.00;97403.16;5097858;28;19932;-53
2022/06/09 03:19:51;;;;;;;;;;;;;;;14.70;72.01;97405.34;5097570;28;19920;-54
2022/06/09 03:22:40;;;;;;;;;;;;;;;14.75;72.09;97405.06;5093217;28;20022;-54
2022/06/09 03:25:29;;;;;;;;;;;;;;;14.75;72.05;97404.28;5091823;28;20069;-54
2022/06/09 03:28:17;;;;;;;;;;;;;;;14.68;72.29;97411.16;5096436;28;19955;-52
2022/06/09 03:31:10;;;;;;;;;;;;;;;14.75;72.08;97417.94;5091342;28;20360;-53
2022/06/09 03:33:59;;;;;;;;;;;;;;;14.74;72.16;97419.09;5097686;28;20004;-53
2022/06/09 03:36:52;;;;;;;;;;;;;;;14.80;72.06;97412.22;5099093;28;19924;-52
2022/06/09 03:39:40;;;;;;;;;;;;;;;14.77;71.73;97418.41;5100168;28;20351;-53
2022/06/09 03:42:29;;;;;;;;;;;;;;;14.78;72.17;97420.00;5100384;28;19928;-51
2022/06/09 03:45:17;;;;;;;;;;;;;;;14.76;71.99;97409.41;5094952;28;19928;-52
2022/06/09 03:48:10;;;;;;;;;;;;;;;14.78;71.78;97425.47;5099261;28;19919;-51
2022/06/09 03:50:59;;;;;;;;;;;;;;;14.79;71.90;97427.84;5095193;28;20331;-53
2022/06/09 03:53:47;;;;;;;;;;;;;;;14.79;71.99;97418.84;5102051;28;20368;-52
2022/06/09 03:56:36;;;;;;;;;;;;;;;14.79;71.97;97425.09;5091878;28;20356;-55
2022/06/09 03:59:24;;;;;;;;;;;;;;;14.79;71.96;97427.06;5100161;28;20383;-52
2022/06/09 04:02:12;;;;;;;;;;;;;;;14.73;72.13;97425.72;5100726;28;20167;-52
2022/06/09 04:05:03;;;;;;;;;;;;;;;14.68;72.00;97419.34;5098387;28;20388;-55
2022/06/09 04:07:51;;;;;;;;;;;;;;;14.74;72.22;97430.03;5097539;28;19928;-53
2022/06/09 04:10:41;;;;;;;;;;;;;;;14.77;72.04;97429.34;5094178;28;19924;-53
2022/06/09 04:13:30;;;;;;;;;;;;;;;14.78;72.07;97433.66;5082744;28;20248;-53
2022/06/09 04:16:21;;;;;;;;;;;;;;;14.71;72.41;97447.16;5098059;28;20316;-52
2022/06/09 04:19:11;;;;;;;;;;;;;;;14.71;72.15;97442.47;5095809;28;19924;-53
2022/06/09 04:22:01;;;;;;;;;;;;;;;14.75;72.23;97448.03;5097838;28;19939;-53
2022/06/09 04:24:50;;;;;;;;;;;;;;;14.78;72.29;97452.81;5097372;28;19946;-52
2022/06/09 04:27:39;;;;;;;;;;;;;;;14.80;72.30;97445.84;5092904;28;19926;-51
2022/06/09 04:30:27;;;;;;;;;;;;;;;14.72;72.49;97454.22;5096769;28;20420;-53
2022/06/09 04:33:16;;;;;;;;;;;;;;;14.68;72.62;97460.38;5096914;28;20028;-53
2022/06/09 04:36:08;;;;;;;;;;;;;;;14.69;72.69;97447.50;5101494;28;20359;-53
2022/06/09 04:38:58;;;;;;;;;;;;;;;14.74;72.38;97457.38;5096476;28;19963;-53
2022/06/09 04:42:11;;;;;;;;;;;;;;;14.78;72.43;97447.34;5094511;28;19930;-51
2022/06/09 04:45:00;;;;;;;;;;;;;;;14.81;71.99;97447.44;5099382;28;19923;-53
2022/06/09 04:47:50;;;;;;;;;;;;;;;14.80;72.03;97456.78;5102645;28;19927;-52
2022/06/09 04:50:39;;;;;;;;;;;;;;;14.77;72.45;97462.16;5091415;28;20024;-53
2022/06/09 04:53:27;;;;;;;;;;;;;;;14.79;72.15;97462.59;5091011;28;19971;-53
2022/06/09 04:56:41;;;;;;;;;;;;;;;14.80;72.36;97466.91;5091661;28;19920;-53
2022/06/09 04:59:30;;;;;;;;;;;;;;;14.71;72.51;97474.50;5088837;28;19931;-53
2022/06/09 05:02:19;;;;;;;;;;;;;;;14.70;72.70;97475.63;5090456;28;20207;-53
2022/06/09 05:05:33;;;;;;;;;;;;;;;14.73;72.59;97472.22;5095807;28;19920;-53
2022/06/09 05:08:21;;;;;;;;;;;;;;;14.76;72.61;97472.31;5092671;28;20029;-53
2022/06/09 05:11:10;;;;;;;;;;;;;;;14.73;72.65;97483.94;5092341;28;20497;-52
2022/06/09 05:14:23;;;;;;;;;;;;;;;14.71;72.97;97483.50;5096227;28;20543;-53
2022/06/09 05:17:16;;;;;;;;;;;;;;;14.77;72.88;97486.78;5093066;28;19928;-53
2022/06/09 05:20:05;;;;;;;;;;;;;;;14.89;72.59;97490.25;5093588;28;19924;-52
2022/06/09 05:22:54;;;;;;;;;;;;;;;14.80;73.00;97489.59;5093937;28;19957;-53
2022/06/09 05:25:42;;;;;;;;;;;;;;;14.81;72.79;97493.94;5096756;28;19928;-52
2022/06/09 05:28:31;;;;;;;;;;;;;;;14.88;72.61;97496.06;5074028;28;19967;-51
2022/06/09 05:31:19;;;;;;;;;;;;;;;14.89;72.39;97503.13;5095003;28;19976;-53
2022/06/09 05:34:09;;;;;;;;;;;;;;;15.05;72.00;97512.16;5099078;28;19927;-53
2022/06/09 05:36:58;;;;;;;;;;;;;;;14.85;72.72;97504.97;5089700;28;20295;-53
2022/06/09 05:46:01;;;;;;;;;;;;;;;15.05;72.27;97523.09;5091645;28;19976;-53
2022/06/09 05:48:50;;;;;;;;;;;;;;;15.02;72.23;97526.56;5094732;28;20382;-53
2022/06/09 05:51:40;;;;;;;;;;;;;;;15.04;71.86;97526.97;5081037;28;20132;-53
2022/06/09 05:54:29;;;;;;;;;;;;;;;15.12;71.99;97523.28;5098865;28;19930;-53
2022/06/09 05:57:17;;;;;;;;;;;;;;;15.11;71.38;97524.44;5093003;28;19928;-53
2022/06/09 06:00:07;;;;;;;;;;;;;;;15.09;71.73;97537.69;5094731;28;20241;-52
2022/06/09 06:02:59;;;;;;;;;;;;;;;15.08;71.45;97541.56;5087972;28;20018;-52
2022/06/09 06:09:24;;;;;;;;;;;;;;;15.30;70.97;97531.97;5090491;28;20014;-49
2022/06/09 06:12:12;;;;;;;;;;;;;;;15.11;71.74;97548.25;5098203;28;20168;-53
2022/06/09 06:15:02;;;;;;;;;;;;;;;15.20;71.32;97552.44;5096905;28;19931;-53
2022/06/09 06:17:53;;;;;;;;;;;;;;;15.24;71.04;97552.53;5099311;28;19951;-50
2022/06/09 06:20:44;;;;;;;;;;;;;;;15.27;70.75;97551.03;5095412;28;19927;-53
2022/06/09 06:23:32;;;;;;;;;;;;;;;15.27;70.47;97564.72;5090717;28;20014;-53
2022/06/09 06:26:23;;;;;;;;;;;;;;;15.15;70.65;97566.38;5090012;28;19928;-54
2022/06/09 06:29:14;;;;;;;;;;;;;;;15.09;71.00;97556.81;5089876;28;19927;-52
2022/06/09 06:32:03;;;;;;;;;;;;;;;15.18;70.86;97568.41;5092146;28;19950;-53
2022/06/09 06:34:51;;;;;;;;;;;;;;;15.22;70.62;97573.97;5099676;28;20081;-53
2022/06/09 06:37:40;;;;;;;;;;;;;;;15.28;70.06;97571.78;5090485;28;19928;-52
2022/06/09 06:40:29;;;;;;;;;;;;;;;15.28;69.87;97571.78;5087838;28;19924;-52
2022/06/09 06:43:25;;;;;;;;;;;;;;;15.44;68.99;97565.19;5095847;28;20058;-53
2022/06/09 06:49:26;;;;;;;;;;;;;;;15.58;68.06;97572.97;5093190;28;19935;-53
2022/06/09 06:52:14;;;;;;;;;;;;;;;15.66;67.90;97577.53;5076029;28;19919;-55
2022/06/09 06:55:03;;;;;;;;;;;;;;;15.73;67.93;97582.38;5089598;28;19935;-53
2022/06/09 06:57:53;;;;;;;;;;;;;;;15.80;67.60;97581.75;5097321;28;19920;-53
2022/06/09 07:00:43;;;;;;;;;;;;;;;16.10;67.09;97584.84;5092284;28;20332;-53
2022/06/09 07:03:32;;;;;;;;;;;;;;;16.50;65.49;97587.31;5099041;28;19976;-53
2022/06/09 07:09:35;;;;;;;;;;;;;;;16.35;63.85;97599.13;5095341;28;19924;-53
2022/06/09 07:12:23;;;;;;;;;;;;;;;16.16;64.62;97597.91;5094310;28;19977;-53
2022/06/09 07:15:12;;;;;;;;;;;;;;;16.06;64.56;97595.72;5092878;28;20483;-52
2022/06/09 07:18:02;;;;;;;;;;;;;;;16.03;64.78;97593.69;5096484;28;20565;-53
2022/06/09 07:20:54;;;;;;;;;;;;;;;15.99;64.88;97587.34;5090036;28;20076;-53
2022/06/09 07:24:07;;;;;;;;;;;;;;;16.08;64.26;97595.34;5092568;28;20125;-53
2022/06/09 07:27:00;;;;;;;;;;;;;;;16.36;62.63;97598.00;5095560;28;19931;-53
2022/06/09 07:29:48;;;;;;;;;;;;;;;16.36;62.21;97595.25;5097909;28;19932;-53
2022/06/09 07:32:37;;;;;;;;;;;;;;;16.48;61.81;97597.88;5089653;28;20311;-53
2022/06/09 07:35:27;;;;;;;;;;;;;;;16.36;61.30;97601.53;5095453;28;20635;-53
2022/06/09 07:38:16;;;;;;;;;;;;;;;16.42;61.63;97600.09;5097503;28;20004;-53
2022/06/09 07:41:09;;;;;;;;;;;;;;;16.61;61.61;97595.78;5092024;28;20339;-51
2022/06/09 07:44:16;;;;;;;;;;;;;;;16.81;60.58;97599.38;5093556;28;20272;-54
2022/06/09 07:47:05;;;;;;;;;;;;;;;16.73;60.33;97607.47;5096466;28;19928;-53
2022/06/09 07:49:54;;;;;;;;;;;;;;;16.54;60.41;97607.41;5094985;28;19924;-53
2022/06/09 07:52:44;;;;;;;;;;;;;;;16.67;60.41;97613.56;5095896;28;20264;-52
2022/06/09 07:55:33;;;;;;;;;;;;;;;16.57;60.07;97611.41;5095168;28;19931;-52
2022/06/09 07:58:22;;;;;;;;;;;;;;;16.94;58.75;97604.41;5095483;28;19940;-54
2022/06/09 08:01:36;;;;;;;;;;;;;;;17.05;57.19;97610.09;5091733;28;19940;-53
2022/06/09 08:04:24;;;;;;;;;;;;;;;17.13;57.26;97603.59;5093184;28;19938;-53
2022/06/09 08:07:13;;;;;;;;;;;;;;;17.18;56.47;97602.50;5092001;28;20073;-54
2022/06/09 08:10:03;;;;;;;;;;;;;;;17.17;56.56;97603.66;5096013;28;19928;-53
2022/06/09 08:12:53;;;;;;;;;;;;;;;17.28;54.87;97599.19;5094269;28;20014;-52
2022/06/09 08:15:43;;;;;;;;;;;;;;;17.25;54.17;97608.91;5095539;28;19931;-52
2022/06/09 08:18:31;;;;;;;;;;;;;;;17.18;55.21;97600.56;5096714;28;19931;-53
2022/06/09 08:21:24;;;;;;;;;;;;;;;17.67;54.15;97616.38;5089191;28;19935;-52
2022/06/09 08:24:33;;;;;;;;;;;;;;;17.26;55.75;97615.22;5089978;28;20350;-54
2022/06/09 08:27:25;;;;;;;;;;;;;;;17.22;56.16;97620.66;5092450;28;20872;-54
2022/06/09 08:30:16;;;;;;;;;;;;;;;17.49;55.55;97620.78;5092823;28;19961;-54
2022/06/09 08:33:05;;;;;;;;;;;;;;;17.73;53.78;97623.19;5098301;28;20015;-53
2022/06/09 08:35:54;;;;;;;;;;;;;;;17.69;54.57;97627.81;5097003;28;20030;-52
2022/06/09 08:38:44;;;;;;;;;;;;;;;17.69;54.49;97622.31;5096008;28;19924;-53
2022/06/09 08:42:25;;;;;;;;;;;;;;;17.55;53.89;97627.56;5099684;28;19920;-54
2022/06/09 08:45:15;;;;;;;;;;;;;;;17.86;53.79;97631.28;5095622;28;19924;-55
2022/06/09 08:48:09;;;;;;;;;;;;;;;17.84;53.16;97633.59;5101183;28;19924;-54
2022/06/09 08:50:59;;;;;;;;;;;;;;;17.84;53.86;97630.84;5091088;28;20457;-54
2022/06/09 08:53:56;;;;;;;;;;;;;;;18.03;53.23;97631.56;5098668;28;19920;-54
2022/06/09 08:56:45;;;;;;;;;;;;;;;18.09;52.68;97645.81;5097976;28;19978;-54
2022/06/09 08:59:37;;;;;;;;;;;;;;;17.98;52.81;97645.63;5100910;28;20282;-53
2022/06/09 09:02:27;;;;;;;;;;;;;;;17.80;53.36;97650.81;5101012;28;20368;-55
2022/06/09 09:05:19;;;;;;;;;;;;;;;17.78;53.11;97652.31;5094299;28;19924;-54
2022/06/09 09:08:13;;;;;;;;;;;;;;;17.65;52.00;97648.94;5097404;28;20551;-54
2022/06/09 09:14:37;;;;;;;;;;;;;;;17.56;51.79;97648.34;5092907;28;20275;-54
2022/06/09 09:17:26;;;;;;;;;;;;;;;17.94;51.29;97644.75;5095891;28;20257;-53
2022/06/09 09:20:16;;;;;;;;;;;;;;;18.04;49.22;97646.91;5098635;28;20277;-55
2022/06/09 09:23:08;;;;;;;;;;;;;;;18.14;46.92;97658.47;5086593;28;19924;-53
2022/06/09 09:25:58;;;;;;;;;;;;;;;18.35;47.52;97663.53;5095184;28;19947;-54
2022/06/09 09:28:47;;;;;;;;;;;;;;;18.22;48.89;97655.47;5093542;28;20325;-53
2022/06/09 09:32:04;;;;;;;;;;;;;;;18.30;49.68;97670.13;5094905;28;19966;-54
2022/06/09 09:34:53;;;;;;;;;;;;;;;18.09;50.53;97659.56;5097913;28;19920;-50
2022/06/09 09:37:44;;;;;;;;;;;;;;;18.21;50.12;97670.34;5094593;28;19931;-55
2022/06/09 09:40:33;;;;;;;;;;;;;;;18.38;49.58;97673.78;5080146;28;20018;-52
2022/06/09 09:43:24;;;;;;;;;;;;;;;18.37;47.69;97678.47;5075628;28;19924;-52
2022/06/09 09:46:18;;;;;;;;;;;;;;;18.06;47.78;97680.34;5069639;28;20418;-54
2022/06/09 09:49:34;;;;;;;;;;;;;;;17.98;47.54;97677.81;5079486;28;19968;-53
2022/06/09 09:52:39;;;;;;;;;;;;;;;17.99;47.66;97673.91;5067578;28;20412;-53
2022/06/09 09:55:29;;;;;;;;;;;;;;;17.68;48.68;97683.91;5078463;28;20359;-54
2022/06/09 09:58:29;;;;;;;;;;;;;;;17.65;48.68;97686.59;5079857;28;19924;-54
2022/06/09 10:08:39;;;;;;;;;;;;;;;17.94;49.20;97682.44;5075092;28;20450;-56
2022/06/09 10:14:55;;;;;;;;;;;;;;;17.96;49.85;97693.88;5071592;28;19921;-54
2022/06/09 10:21:16;;;;;;;;;;;;;;;18.05;49.81;97694.44;5074047;28;20146;-51
2022/06/09 10:24:05;;;;;;;;;;;;;;;18.12;50.26;97699.28;5071608;28;19928;-56
2022/06/09 10:27:02;;;;;;;;;;;;;;;18.41;48.58;97697.78;5071911;28;19921;-55
2022/06/09 10:29:52;;;;;;;;;;;;;;;18.31;48.29;97688.19;5073685;28;20295;-54
2022/06/09 10:32:43;;;;;;;;;;;;;;;18.48;48.65;97686.91;5078710;28;19920;-54
2022/06/09 10:35:32;;;;;;;;;;;;;;;18.38;48.34;97699.34;5077210;28;19928;-56
2022/06/09 10:38:27;;;;;;;;;;;;;;;18.43;48.30;97693.53;5085831;28;19924;-55
2022/06/09 10:41:16;;;;;;;;;;;;;;;18.29;49.76;97707.81;5073815;28;19924;-54
2022/06/09 10:44:05;;;;;;;;;;;;;;;18.23;50.07;97711.25;5077595;28;19924;-53
2022/06/09 10:59:31;;;;;;;;;;;;;;;18.35;48.62;97715.78;5079151;28;19924;-54
2022/06/09 11:02:21;;;;;;;;;;;;;;;18.43;49.21;97720.22;5074587;28;19924;-54
2022/06/09 11:08:26;;;;;;;;;;;;;;;18.48;48.57;97734.47;5076992;28;19924;-55
2022/06/09 11:11:18;;;;;;;;;;;;;;;18.45;48.06;97723.41;5080580;28;19980;-54
2022/06/09 11:14:15;;;;;;;;;;;;;;;18.27;49.17;97729.41;5075936;28;19920;-56
2022/06/09 11:17:08;;;;;;;;;;;;;;;18.22;48.46;97731.66;5078079;28;19928;-53
2022/06/09 11:20:01;;;;;;;;;;;;;;;18.19;46.57;97738.69;5074137;28;19950;-55
2022/06/09 11:22:51;;;;;;;;;;;;;;;18.06;46.39;97738.06;5075070;28;20179;-54
2022/06/09 11:25:45;;;;;;;;;;;;;;;17.93;45.66;97733.88;5068883;28;19932;-54
2022/06/09 11:28:47;;;;;;;;;;;;;;;18.03;46.02;97741.53;5078007;28;20085;-54
2022/06/09 11:31:39;;;;;;;;;;;;;;;18.10;45.37;97740.88;5071281;28;19969;-53
2022/06/09 11:34:44;;;;;;;;;;;;;;;18.24;44.93;97743.88;5072675;28;19924;-55
2022/06/09 11:37:48;;;;;;;;;;;;;;;18.31;44.15;97746.75;5077669;28;20208;-54
2022/06/09 11:40:39;;;;;;;;;;;;;;;18.57;43.90;97746.00;5075458;28;19963;-55
2022/06/09 11:43:35;;;;;;;;;;;;;;;18.61;44.16;97743.31;5066038;28;20002;-55
2022/06/09 11:46:26;;;;;;;;;;;;;;;18.64;44.09;97739.03;5070746;28;19931;-55
2022/06/09 11:49:22;;;;;;;;;;;;;;;18.47;43.58;97738.38;5077286;28;19920;-54
2022/06/09 11:52:11;;;;;;;;;;;;;;;18.56;43.94;97740.88;5072371;28;20058;-55
2022/06/09 11:55:02;;;;;;;;;;;;;;;18.73;43.95;97748.66;5068465;28;19932;-54
2022/06/09 11:57:53;;;;;;;;;;;;;;;18.74;43.92;97736.47;5063032;28;20018;-55
2022/06/09 12:00:42;;;;;;;;;;;;;;;18.68;44.01;97742.69;5081641;28;19920;-54
2022/06/09 12:03:48;;;;;;;;;;;;;;;18.73;44.31;97753.38;5077538;28;19928;-55
2022/06/09 12:06:40;;;;;;;;;;;;;;;18.72;44.20;97749.81;5072181;28;20056;-54
2022/06/09 12:09:33;;;;;;;;;;;;;;;18.68;43.68;97735.22;5073772;28;19928;-56
2022/06/09 12:12:35;;;;;;;;;;;;;;;18.79;43.96;97738.91;5074585;28;19924;-54
2022/06/09 12:15:26;;;;;;;;;;;;;;;19.02;43.51;97743.63;5077663;28;20372;-52
2022/06/09 12:18:35;;;;;;;;;;;;;;;19.05;43.68;97751.13;5078571;28;19927;-54
2022/06/09 12:21:28;;;;;;;;;;;;;;;19.15;43.62;97752.44;5080778;28;19924;-52
2022/06/09 12:24:30;;;;;;;;;;;;;;;19.25;43.48;97755.34;5078744;28;19932;-49
2022/06/09 12:27:22;;;;;;;;;;;;;;;19.26;44.06;97753.38;5072725;28;20080;-54
2022/06/09 12:30:35;;;;;;;;;;;;;;;19.31;43.96;97753.84;5079862;28;19928;-53
2022/06/09 12:33:31;;;;;;;;;;;;;;;19.17;44.43;97753.63;5065377;28;19920;-53
2022/06/09 12:36:38;;;;;;;;;;;;;;;19.25;44.48;97760.84;5081320;28;19928;-55
2022/06/09 12:39:29;;;;;;;;;;;;;;;19.30;44.71;97757.78;5076154;28;20232;-55
2022/06/09 12:42:20;;;;;;;;;;;;;;;19.36;44.87;97769.28;5080966;28;20457;-53
2022/06/09 12:45:13;;;;;;;;;;;;;;;19.27;45.28;97764.03;5054814;28;20452;-54
2022/06/09 12:48:08;;;;;;;;;;;;;;;19.29;45.01;97760.91;5072049;28;20612;-52
2022/06/09 12:50:57;;;;;;;;;;;;;;;19.29;45.61;97772.72;5072151;28;19924;-55
2022/06/09 12:53:52;;;;;;;;;;;;;;;19.42;45.23;97780.75;5079487;28;20235;-54
2022/06/09 12:56:42;;;;;;;;;;;;;;;19.55;45.02;97777.41;5078897;28;19932;-55
2022/06/09 12:59:32;;;;;;;;;;;;;;;19.81;43.84;97773.00;5081270;28;19970;-53
2022/06/09 13:02:22;;;;;;;;;;;;;;;19.82;43.91;97778.19;5077138;28;20147;-54
2022/06/09 13:05:20;;;;;;;;;;;;;;;19.83;43.82;97779.75;5076900;28;20307;-55
2022/06/09 13:08:14;;;;;;;;;;;;;;;19.61;43.56;97781.44;5077690;28;19927;-54
2022/06/09 13:11:08;;;;;;;;;;;;;;;19.62;43.93;97793.28;5080259;28;19925;-53
2022/06/09 13:14:24;;;;;;;;;;;;;;;19.45;44.04;97791.03;5073737;28;19924;-53
2022/06/09 13:17:14;;;;;;;;;;;;;;;19.37;43.38;97790.91;5093509;28;19946;-53
2022/06/09 13:20:04;;;;;;;;;;;;;;;19.33;42.21;97805.81;5098179;28;19920;-53
2022/06/09 13:22:52;;;;;;;;;;;;;;;19.44;42.47;97800.44;5096307;28;19927;-50
2022/06/09 13:25:41;;;;;;;;;;;;;;;19.56;42.86;97792.78;5096765;28;20354;-52
2022/06/09 13:28:35;;;;;;;;;;;;;;;19.33;45.44;97809.38;5099001;28;20214;-51
2022/06/09 13:31:25;;;;;;;;;;;;;;;19.00;47.14;97809.25;5092915;28;19938;-51
2022/06/09 13:34:21;;;;;;;;;;;;;;;19.07;47.06;97815.69;5100255;28;19920;-55
2022/06/09 13:37:11;;;;;;;;;;;;;;;19.25;47.20;97818.69;5095451;28;20417;-53
2022/06/09 13:40:02;;;;;;;;;;;;;;;19.06;47.11;97821.53;5100532;28;19926;-55
2022/06/09 13:42:54;;;;;;;;;;;;;;;18.89;48.16;97828.34;5095609;28;20364;-54
2022/06/09 13:45:48;;;;;;;;;;;;;;;18.92;48.28;97830.38;5099451;28;19924;-54
2022/06/09 13:48:42;;;;;;;;;;;;;;;18.86;48.70;97831.84;5091430;28;20014;-53
2022/06/09 13:51:32;;;;;;;;;;;;;;;18.92;48.88;97835.09;5091338;28;20367;-53
2022/06/09 13:54:48;;;;;;;;;;;;;;;18.89;48.95;97835.81;5098992;28;20268;-52
2022/06/09 13:57:38;;;;;;;;;;;;;;;18.89;48.68;97839.34;5096913;28;20507;-53
2022/06/09 14:00:28;;;;;;;;;;;;;;;18.86;49.10;97850.31;5098598;28;20081;-53
2022/06/09 14:03:19;;;;;;;;;;;;;;;18.92;48.67;97851.59;5099728;28;19923;-52
2022/06/09 14:06:09;;;;;;;;;;;;;;;19.02;48.15;97851.00;5096836;28;19927;-54
2022/06/09 14:08:57;;;;;;;;;;;;;;;19.17;47.46;97852.00;5100458;28;19939;-53
2022/06/09 14:11:46;;;;;;;;;;;;;;;19.16;46.95;97855.91;5100371;28;20138;-53
2022/06/09 14:14:55;;;;;;;;;;;;;;;19.05;46.73;97861.25;5094823;28;19924;-55
2022/06/09 14:17:49;;;;;;;;;;;;;;;19.05;46.97;97870.31;5101077;28;19924;-53
2022/06/09 14:20:39;;;;;;;;;;;;;;;19.06;46.82;97879.34;5094647;28;20347;-54
2022/06/09 14:23:28;;;;;;;;;;;;;;;18.78;47.98;97887.91;5075100;28;19981;-54
2022/06/09 14:26:18;;;;;;;;;;;;;;;18.84;48.16;97884.50;5092702;28;19920;-54
2022/06/09 14:29:33;;;;;;;;;;;;;;;18.81;47.90;97896.25;5099819;28;20351;-54
2022/06/09 14:32:23;;;;;;;;;;;;;;;18.97;47.81;97887.09;5086699;28;20433;-55
2022/06/09 14:35:13;;;;;;;;;;;;;;;19.09;47.60;97889.66;5099447;28;20315;-54
2022/06/09 14:38:03;;;;;;;;;;;;;;;18.97;47.59;97893.38;5095830;28;20418;-54
2022/06/09 14:40:54;;;;;;;;;;;;;;;18.81;47.82;97917.47;5099532;28;19924;-54
2022/06/09 14:43:43;;;;;;;;;;;;;;;18.76;47.02;97915.81;5091247;28;19932;-54
2022/06/09 14:46:32;;;;;;;;;;;;;;;18.63;46.30;97916.28;5099980;28;19969;-53
2022/06/09 14:49:45;;;;;;;;;;;;;;;18.47;46.77;97921.88;5100156;28;19923;-53
2022/06/09 14:52:33;;;;;;;;;;;;;;;18.50;46.81;97929.44;5097317;28;20024;-54
2022/06/09 14:55:23;;;;;;;;;;;;;;;18.61;46.49;97924.13;5075403;28;20362;-55
2022/06/09 14:58:12;;;;;;;;;;;;;;;18.46;47.06;97917.56;5092618;28;19924;-54
2022/06/09 15:01:00;;;;;;;;;;;;;;;18.48;47.02;97926.22;5097989;28;19931;-53
2022/06/09 15:03:49;;;;;;;;;;;;;;;18.43;47.43;97921.84;5099392;28;20394;-52
2022/06/09 15:09:49;;;;;;;;;;;;;;;18.48;47.98;97934.47;5099388;28;20284;-56
2022/06/09 15:12:41;;;;;;;;;;;;;;;18.58;47.71;97928.41;5096356;28;19932;-55
2022/06/09 15:15:29;;;;;;;;;;;;;;;18.54;48.21;97927.56;5099340;28;19951;-52
2022/06/09 15:18:19;;;;;;;;;;;;;;;18.63;47.29;97928.09;5098251;28;20442;-54
2022/06/09 15:21:08;;;;;;;;;;;;;;;18.78;47.33;97930.00;5098624;28;19924;-55
2022/06/09 15:23:56;;;;;;;;;;;;;;;18.60;47.49;97939.84;5094865;28;19920;-54
2022/06/09 15:29:59;;;;;;;;;;;;;;;18.73;47.83;97930.28;5094257;28;19931;-54
2022/06/09 15:32:48;;;;;;;;;;;;;;;18.80;48.12;97940.63;5096533;28;19919;-55
2022/06/09 15:35:38;;;;;;;;;;;;;;;18.64;48.57;97939.91;5086774;28;20002;-54
2022/06/09 15:38:27;;;;;;;;;;;;;;;18.57;49.16;97944.09;5100796;28;20261;-55
2022/06/09 15:41:15;;;;;;;;;;;;;;;18.67;49.13;97928.97;5098685;28;19923;-54
2022/06/09 15:44:04;;;;;;;;;;;;;;;18.69;49.53;97934.13;5103017;28;20477;-54
2022/06/09 15:47:19;;;;;;;;;;;;;;;18.82;49.16;97930.06;5096381;28;19924;-53
2022/06/09 15:50:09;;;;;;;;;;;;;;;18.75;49.58;97932.66;5101575;28;19931;-54
2022/06/09 15:52:58;;;;;;;;;;;;;;;18.69;49.71;97931.38;5091845;28;19931;-54
2022/06/09 15:55:48;;;;;;;;;;;;;;;18.72;49.77;97936.97;5096952;28;19924;-53
2022/06/09 15:58:40;;;;;;;;;;;;;;;18.76;49.95;97928.78;5099731;28;19947;-54
2022/06/09 16:01:29;;;;;;;;;;;;;;;18.92;49.83;97942.44;5102040;28;19947;-54